createdAt,value
2018-12-17T00:01:51.702Z,1.41
2018-12-17T00:04:55.709Z,1.47
2018-12-17T00:07:59.464Z,1.44
2018-12-17T00:11:03.412Z,1.40
2018-12-17T00:14:05.192Z,1.37
2018-12-17T00:17:06.876Z,1.30
2018-12-17T00:20:09.520Z,1.35
2018-12-17T00:23:11.239Z,1.44
2018-12-17T00:26:15.128Z,1.45
2018-12-17T00:29:16.868Z,1.48
2018-12-17T00:32:18.684Z,1.53
2018-12-17T00:35:20.360Z,1.62
2018-12-17T00:38:22.152Z,1.61
2018-12-17T00:41:23.900Z,1.43
2018-12-17T00:44:25.613Z,1.45
2018-12-17T00:47:27.292Z,1.50
2018-12-17T00:50:29.058Z,1.54
2018-12-17T00:53:30.746Z,1.54
2018-12-17T00:56:32.581Z,1.44
2018-12-17T00:59:34.239Z,1.43
2018-12-17T01:02:35.989Z,1.29
2018-12-17T01:05:37.778Z,1.29
2018-12-17T01:08:39.580Z,1.35
2018-12-17T01:11:41.331Z,1.32
2018-12-17T01:14:43.093Z,1.18
2018-12-17T01:17:44.758Z,1.10
2018-12-17T01:20:46.509Z,1.10
2018-12-17T01:23:48.511Z,1.07
2018-12-17T01:26:50.229Z,1.08
2018-12-17T01:29:51.999Z,1.07
2018-12-17T01:32:53.962Z,1.05
2018-12-17T01:35:56.744Z,1.18
2018-12-17T01:38:58.498Z,1.27
2018-12-17T01:42:00.192Z,1.24
2018-12-17T01:45:02.130Z,1.13
2018-12-17T01:48:04.006Z,0.97
2018-12-17T01:51:05.782Z,0.91
2018-12-17T01:54:07.568Z,0.84
2018-12-17T01:57:09.317Z,1.00
2018-12-17T02:00:11.106Z,0.99
2018-12-17T02:03:12.853Z,1.05
2018-12-17T02:06:14.673Z,1.10
2018-12-17T02:09:16.478Z,1.11
2018-12-17T02:12:18.210Z,1.20
2018-12-17T02:15:20.065Z,1.18
2018-12-17T02:18:21.832Z,1.18
2018-12-17T02:21:23.569Z,1.09
2018-12-17T02:24:25.310Z,1.01
2018-12-17T02:27:27.159Z,0.96
2018-12-17T02:30:28.990Z,0.96
2018-12-17T02:33:30.766Z,0.89
2018-12-17T02:36:32.515Z,0.85
2018-12-17T02:39:34.382Z,0.93
2018-12-17T02:42:36.169Z,0.99
2018-12-17T02:45:37.982Z,1.05
2018-12-17T02:48:39.732Z,1.08
2018-12-17T02:51:41.532Z,1.15
2018-12-17T02:54:43.460Z,1.22
2018-12-17T02:57:45.259Z,1.27
2018-12-17T03:00:47.180Z,1.29
2018-12-17T03:03:49.207Z,1.23
2018-12-17T03:06:50.992Z,1.18
2018-12-17T03:09:53.121Z,1.23
2018-12-17T03:12:54.891Z,1.24
2018-12-17T03:15:56.710Z,1.29
2018-12-17T03:18:58.421Z,1.30
2018-12-17T03:22:00.195Z,1.32
2018-12-17T03:25:01.959Z,1.39
2018-12-17T03:28:03.729Z,1.37
2018-12-17T03:31:06.614Z,1.34
2018-12-17T03:34:08.302Z,1.36
2018-12-17T03:37:10.072Z,1.30
2018-12-17T03:40:11.733Z,1.28
2018-12-17T03:43:13.500Z,1.37
2018-12-17T03:46:15.206Z,1.44
2018-12-17T03:49:16.888Z,1.56
2018-12-17T03:52:18.585Z,1.66
2018-12-17T03:55:20.321Z,1.76
2018-12-17T03:58:22.054Z,1.89
2018-12-17T04:01:23.853Z,1.93
2018-12-17T04:04:25.612Z,1.98
2018-12-17T04:07:27.346Z,1.92
2018-12-17T04:10:29.044Z,1.86
2018-12-17T04:13:30.785Z,1.90
2018-12-17T04:16:33.770Z,1.87
2018-12-17T04:19:35.492Z,1.95
2018-12-17T04:22:37.225Z,1.99
2018-12-17T04:25:39.024Z,1.88
2018-12-17T04:28:40.737Z,1.82
2018-12-17T04:31:42.488Z,1.76
2018-12-17T04:34:45.290Z,1.72
2018-12-17T04:37:47.010Z,1.60
2018-12-17T04:40:48.838Z,1.60
2018-12-17T04:43:50.686Z,1.70
2018-12-17T04:46:52.430Z,1.63
2018-12-17T04:49:54.154Z,1.57
2018-12-17T04:52:55.798Z,1.56
2018-12-17T04:55:57.558Z,1.52
2018-12-17T04:58:59.459Z,1.53
2018-12-17T05:02:01.362Z,1.55
2018-12-17T05:05:04.070Z,1.53
2018-12-17T05:08:05.798Z,1.56
2018-12-17T05:11:07.568Z,1.46
2018-12-17T05:14:09.599Z,1.46
2018-12-17T05:17:11.401Z,1.45
2018-12-17T05:20:13.307Z,1.46
2018-12-17T05:23:15.061Z,1.55
2018-12-17T05:26:16.976Z,1.67
2018-12-17T05:29:21.721Z,1.68
2018-12-17T05:32:22.847Z,1.61
2018-12-17T05:35:24.660Z,1.54
2018-12-17T05:38:28.613Z,1.54
2018-12-17T05:41:30.266Z,1.61
2018-12-17T05:44:31.998Z,1.65
2018-12-17T05:47:33.708Z,1.68
2018-12-17T05:50:35.538Z,1.70
2018-12-17T05:53:37.336Z,1.74
2018-12-17T05:56:38.985Z,1.79
2018-12-17T05:59:40.800Z,1.90
2018-12-17T06:02:42.488Z,2.04
2018-12-17T06:05:44.207Z,2.07
2018-12-17T06:08:45.917Z,2.11
2018-12-17T06:11:47.936Z,2.13
2018-12-17T06:14:49.600Z,2.29
2018-12-17T06:17:51.296Z,2.41
2018-12-17T06:20:53.239Z,2.47
2018-12-17T06:23:55.064Z,2.47
2018-12-17T06:26:56.778Z,2.57
2018-12-17T06:29:58.648Z,2.63
2018-12-17T06:33:00.334Z,2.66
2018-12-17T06:36:02.167Z,2.57
2018-12-17T06:39:05.721Z,2.46
2018-12-17T06:42:08.601Z,2.27
2018-12-17T06:45:10.270Z,2.30
2018-12-17T06:48:17.105Z,2.36
2018-12-17T06:51:15.852Z,2.48
2018-12-17T06:54:17.862Z,2.62
2018-12-17T06:57:19.612Z,2.69
2018-12-17T07:00:21.513Z,2.75
2018-12-17T07:03:23.312Z,2.80
2018-12-17T07:06:25.123Z,2.77
2018-12-17T07:09:26.919Z,2.79
2018-12-17T07:12:35.545Z,2.81
2018-12-17T07:15:37.323Z,2.89
2018-12-17T07:18:39.062Z,2.84
2018-12-17T07:21:40.787Z,2.86
2018-12-17T07:24:42.565Z,2.83
2018-12-17T07:27:44.272Z,2.78
2018-12-17T07:30:46.116Z,2.76
2018-12-17T07:33:47.778Z,2.74
2018-12-17T07:36:49.560Z,2.79
2018-12-17T07:39:51.431Z,2.83
2018-12-17T07:42:53.351Z,2.83
2018-12-17T07:45:55.220Z,2.88
2018-12-17T07:48:56.982Z,2.91
2018-12-17T07:51:58.669Z,3.02
2018-12-17T07:55:00.553Z,3.08
2018-12-17T07:58:02.333Z,3.09
2018-12-17T08:01:04.234Z,3.09
2018-12-17T08:04:06.012Z,3.07
2018-12-17T08:07:07.870Z,3.09
2018-12-17T08:10:09.588Z,3.17
2018-12-17T08:13:11.462Z,3.26
2018-12-17T08:16:13.170Z,3.28
2018-12-17T08:19:14.897Z,3.35
2018-12-17T08:22:16.585Z,3.41
2018-12-17T08:25:18.323Z,3.48
2018-12-17T08:28:20.021Z,3.55
2018-12-17T08:31:21.898Z,3.54
2018-12-17T08:34:23.679Z,3.45
2018-12-17T08:37:25.538Z,3.51
2018-12-17T08:40:27.270Z,3.52
2018-12-17T08:43:29.160Z,3.64
2018-12-17T08:46:30.969Z,3.71
2018-12-17T08:49:32.741Z,3.79
2018-12-17T08:52:35.540Z,3.88
2018-12-17T08:55:40.286Z,3.85
2018-12-17T08:58:42.168Z,3.92
2018-12-17T09:01:44.196Z,4.00
2018-12-17T09:04:46.033Z,4.04
2018-12-17T09:07:47.834Z,4.06
2018-12-17T09:10:49.641Z,4.11
2018-12-17T09:13:51.493Z,4.15
2018-12-17T09:16:53.297Z,4.18
2018-12-17T09:19:55.083Z,4.25
2018-12-17T09:22:56.834Z,4.32
2018-12-17T09:25:58.920Z,4.33
2018-12-17T09:29:00.605Z,4.34
2018-12-17T09:32:02.489Z,4.33
2018-12-17T09:35:04.462Z,4.36
2018-12-17T09:38:06.293Z,4.37
2018-12-17T09:41:08.019Z,4.26
2018-12-17T09:44:09.855Z,4.26
2018-12-17T09:47:11.541Z,4.27
2018-12-17T09:50:13.287Z,4.15
2018-12-17T09:53:15.106Z,4.26
2018-12-17T09:56:16.957Z,4.27
2018-12-17T09:59:18.662Z,4.29
2018-12-17T10:02:20.561Z,4.32
2018-12-17T10:05:22.343Z,4.29
2018-12-17T10:08:24.153Z,4.31
2018-12-17T10:11:25.870Z,4.34
2018-12-17T10:14:27.664Z,4.39
2018-12-17T10:17:29.362Z,4.41
2018-12-17T10:20:31.104Z,4.42
2018-12-17T10:23:32.791Z,4.45
2018-12-17T10:26:34.718Z,4.56
2018-12-17T10:29:36.474Z,4.59
2018-12-17T10:32:38.494Z,4.62
2018-12-17T10:35:40.257Z,4.62
2018-12-17T10:38:41.995Z,4.59
2018-12-17T10:41:43.752Z,4.63
2018-12-17T10:44:47.464Z,4.66
2018-12-17T10:47:49.173Z,4.65
2018-12-17T10:50:50.881Z,4.66
2018-12-17T10:53:52.605Z,4.64
2018-12-17T10:56:54.392Z,4.53
2018-12-17T10:59:56.434Z,4.46
2018-12-17T11:02:59.589Z,4.49
2018-12-17T11:06:02.452Z,4.42
2018-12-17T11:09:05.643Z,4.44
2018-12-17T11:12:08.837Z,4.48
2018-12-17T11:15:10.762Z,4.48
2018-12-17T11:18:12.510Z,4.48
2018-12-17T11:21:14.285Z,4.47
2018-12-17T11:24:17.066Z,4.50
2018-12-17T11:27:18.964Z,4.53
2018-12-17T11:30:20.673Z,4.51
2018-12-17T11:33:22.453Z,4.48
2018-12-17T11:36:24.173Z,4.49
2018-12-17T11:39:25.893Z,4.50
2018-12-17T11:42:27.606Z,4.52
2018-12-17T11:45:29.693Z,4.58
2018-12-17T11:48:31.538Z,4.63
2018-12-17T11:51:33.301Z,4.70
2018-12-17T11:54:35.000Z,4.70
2018-12-17T11:57:58.511Z,4.72
2018-12-17T12:01:02.695Z,4.70
2018-12-17T12:04:05.625Z,4.68
2018-12-17T12:07:07.396Z,4.68
2018-12-17T12:10:09.214Z,4.69
2018-12-17T12:13:10.967Z,4.66
2018-12-17T12:16:12.653Z,4.64
2018-12-17T12:19:14.391Z,4.54
2018-12-17T12:22:16.094Z,4.48
2018-12-17T12:25:17.833Z,4.40
2018-12-17T12:28:19.760Z,4.39
2018-12-17T12:31:21.919Z,4.36
2018-12-17T12:34:23.737Z,4.36
2018-12-17T12:37:25.557Z,4.41
2018-12-17T12:40:27.349Z,4.47
2018-12-17T12:43:30.264Z,4.46
2018-12-17T12:46:32.150Z,4.23
2018-12-17T12:49:33.834Z,4.03
2018-12-17T12:52:35.656Z,4.08
2018-12-17T12:55:37.499Z,4.07
2018-12-17T12:58:39.383Z,4.18
2018-12-17T13:01:41.166Z,4.25
2018-12-17T13:04:42.975Z,4.32
2018-12-17T13:07:45.688Z,4.31
2018-12-17T13:10:47.410Z,4.39
2018-12-17T13:13:49.059Z,4.41
2018-12-17T13:16:50.723Z,4.43
2018-12-17T13:19:52.483Z,4.49
2018-12-17T13:22:54.210Z,4.57
2018-12-17T13:25:57.081Z,4.66
2018-12-17T13:28:58.893Z,4.71
2018-12-17T13:32:00.652Z,4.68
2018-12-17T13:35:02.469Z,4.76
2018-12-17T13:38:05.209Z,4.86
2018-12-17T13:41:07.002Z,4.91
2018-12-17T13:44:08.793Z,4.98
2018-12-17T13:47:10.610Z,5.02
2018-12-17T13:50:18.408Z,5.03
2018-12-17T13:53:26.231Z,5.03
2018-12-17T13:56:28.074Z,4.83
2018-12-17T13:59:29.821Z,4.56
2018-12-17T14:02:31.540Z,4.34
2018-12-17T14:05:33.411Z,4.23
2018-12-17T14:08:35.920Z,4.12
2018-12-17T14:11:37.711Z,4.01
2018-12-17T14:14:39.428Z,4.08
2018-12-17T14:17:43.268Z,4.12
2018-12-17T14:20:51.056Z,4.16
2018-12-17T14:23:52.844Z,4.03
2018-12-17T14:26:54.656Z,3.92
2018-12-17T14:29:56.366Z,3.81
2018-12-17T14:32:58.114Z,3.74
2018-12-17T14:36:05.917Z,3.65
2018-12-17T14:39:07.871Z,3.65
2018-12-17T14:42:10.673Z,3.67
2018-12-17T14:45:12.491Z,3.64
2018-12-17T14:48:14.143Z,3.61
2018-12-17T14:51:15.894Z,3.67
2018-12-17T14:54:18.071Z,3.70
2018-12-17T14:57:19.993Z,3.73
2018-12-17T15:00:21.755Z,3.76
2018-12-17T15:03:23.526Z,3.79
2018-12-17T15:06:25.316Z,3.79
2018-12-17T15:09:27.076Z,3.80
2018-12-17T15:12:28.955Z,3.83
2018-12-17T15:15:30.806Z,3.84
2018-12-17T15:18:32.595Z,3.83
2018-12-17T15:21:34.345Z,3.80
2018-12-17T15:24:40.408Z,3.86
2018-12-17T15:27:39.916Z,3.96
2018-12-17T15:30:41.699Z,4.01
2018-12-17T15:33:45.252Z,3.98
2018-12-17T15:36:48.225Z,3.98
2018-12-17T15:39:50.038Z,4.01
2018-12-17T15:42:51.958Z,4.01
2018-12-17T15:45:53.878Z,4.03
2018-12-17T15:48:55.719Z,4.01
2018-12-17T15:51:57.540Z,4.01
2018-12-17T15:54:59.470Z,3.99
2018-12-17T15:58:01.299Z,3.95
2018-12-17T16:01:03.192Z,3.94
2018-12-17T16:04:04.916Z,3.90
2018-12-17T16:07:06.744Z,3.86
2018-12-17T16:10:08.541Z,3.87
2018-12-17T16:13:10.338Z,3.82
2018-12-17T16:16:12.290Z,3.82
2018-12-17T16:19:14.093Z,3.80
2018-12-17T16:22:15.809Z,3.78
2018-12-17T16:25:17.574Z,3.75
2018-12-17T16:28:19.358Z,3.73
2018-12-17T16:34:29.641Z,3.67
2018-12-17T16:37:31.504Z,3.75
2018-12-17T16:40:33.628Z,3.83
2018-12-17T16:43:35.392Z,3.86
2018-12-17T16:46:37.114Z,3.87
2018-12-17T16:49:39.368Z,3.86
2018-12-17T16:52:41.081Z,3.85
2018-12-17T16:55:42.857Z,3.87
2018-12-17T16:58:44.614Z,3.90
2018-12-17T17:01:46.343Z,3.88
2018-12-17T17:04:48.236Z,3.95
2018-12-17T17:07:50.028Z,4.01
2018-12-17T17:10:51.743Z,4.02
2018-12-17T17:13:53.541Z,4.04
2018-12-17T17:17:02.620Z,3.99
2018-12-17T17:20:05.806Z,3.96
2018-12-17T17:23:07.706Z,3.94
2018-12-17T17:26:09.426Z,3.89
2018-12-17T17:29:11.224Z,3.83
2018-12-17T17:32:12.971Z,3.87
2018-12-17T17:35:14.734Z,3.82
2018-12-17T17:38:16.442Z,3.87
2018-12-17T17:41:18.200Z,3.92
2018-12-17T17:44:19.982Z,3.94
2018-12-17T17:47:21.799Z,3.95
2018-12-17T17:50:23.614Z,3.99
2018-12-17T17:53:25.307Z,4.07
2018-12-17T17:56:27.042Z,3.96
2018-12-17T17:59:28.746Z,3.94
2018-12-17T18:02:30.562Z,4.05
2018-12-17T18:05:32.284Z,4.04
2018-12-17T18:08:34.984Z,4.08
2018-12-17T18:11:36.862Z,4.04
2018-12-17T18:14:38.702Z,4.08
2018-12-17T18:17:40.714Z,4.15
2018-12-17T18:20:42.593Z,4.16
2018-12-17T18:23:44.331Z,4.26
2018-12-17T18:26:46.083Z,4.15
2018-12-17T18:29:47.795Z,4.12
2018-12-17T18:32:49.939Z,4.22
2018-12-17T18:35:58.534Z,4.11
2018-12-17T18:39:01.355Z,3.94
2018-12-17T18:42:04.526Z,3.80
2018-12-17T18:45:07.964Z,3.75
2018-12-17T18:48:11.157Z,3.68
2018-12-17T18:51:13.082Z,3.63
2018-12-17T18:54:14.859Z,3.65
2018-12-17T18:57:16.595Z,3.69
2018-12-17T19:00:18.365Z,3.69
2018-12-17T19:03:21.076Z,3.52
2018-12-17T19:06:22.995Z,3.44
2018-12-17T19:09:24.785Z,3.48
2018-12-17T19:12:26.939Z,3.59
2018-12-17T19:15:28.629Z,3.71
2018-12-17T19:18:30.493Z,3.79
2018-12-17T19:21:32.323Z,3.86
2018-12-17T19:24:34.239Z,3.75
2018-12-17T19:27:36.028Z,3.69
2018-12-17T19:30:37.720Z,3.67
2018-12-17T19:33:41.369Z,3.72
2018-12-17T19:36:45.715Z,3.74
2018-12-17T19:39:47.627Z,3.71
2018-12-17T19:42:49.676Z,3.72
2018-12-17T19:45:51.500Z,3.71
2018-12-17T19:48:53.262Z,3.72
2018-12-17T19:51:56.627Z,3.67
2018-12-17T19:55:05.382Z,3.70
2018-12-17T19:58:07.350Z,3.62
2018-12-17T20:01:09.352Z,3.59
2018-12-17T20:04:12.047Z,3.73
2018-12-17T20:07:14.891Z,3.70
2018-12-17T20:10:20.848Z,3.77
2018-12-17T20:13:22.718Z,3.68
2018-12-17T20:16:24.962Z,3.67
2018-12-17T20:19:28.507Z,3.75
2018-12-17T20:22:31.204Z,3.89
2018-12-17T20:25:33.161Z,4.04
2018-12-17T20:28:35.058Z,4.15
2018-12-17T20:31:38.435Z,4.18
2018-12-17T20:34:40.269Z,4.12
2018-12-17T20:37:42.270Z,4.05
2018-12-17T20:40:44.139Z,3.89
2018-12-17T20:43:47.015Z,3.73
2018-12-17T20:46:48.997Z,3.54
2018-12-17T20:49:51.948Z,3.52
2018-12-17T20:52:54.843Z,3.53
2018-12-17T20:55:57.932Z,3.64
2018-12-17T20:59:00.794Z,3.74
2018-12-17T21:02:02.710Z,3.90
2018-12-17T21:05:04.948Z,4.01
2018-12-17T21:08:06.766Z,3.87
2018-12-17T21:11:09.535Z,3.81
2018-12-17T21:14:11.426Z,3.78
2018-12-17T21:17:14.561Z,3.80
2018-12-17T21:20:16.304Z,3.83
2018-12-17T21:23:19.220Z,3.89
2018-12-17T21:26:20.971Z,3.94
2018-12-17T21:29:23.054Z,3.85
2018-12-17T21:32:25.010Z,3.73
2018-12-17T21:35:27.322Z,3.70
2018-12-17T21:38:29.196Z,3.72
2018-12-17T21:41:30.942Z,3.71
2018-12-17T21:44:32.677Z,3.85
2018-12-17T21:47:35.455Z,3.89
2018-12-17T21:50:37.189Z,4.00
2018-12-17T21:53:39.011Z,4.06
2018-12-17T21:56:40.821Z,4.07
2018-12-17T21:59:42.756Z,4.10
2018-12-17T22:02:44.624Z,4.11
2018-12-17T22:05:46.475Z,4.10
2018-12-17T22:08:48.321Z,4.14
2018-12-17T22:11:50.112Z,4.18
2018-12-17T22:14:51.953Z,4.14
2018-12-17T22:17:53.749Z,4.05
2018-12-17T22:20:55.561Z,3.95
2018-12-17T22:23:57.421Z,3.85
2018-12-17T22:26:59.381Z,3.75
2018-12-17T22:30:01.306Z,3.75
2018-12-17T22:33:03.133Z,3.70
2018-12-17T22:36:04.994Z,3.68
2018-12-17T22:39:07.184Z,3.73
2018-12-17T22:42:15.927Z,3.78
2018-12-17T22:45:17.741Z,3.86
2018-12-17T22:48:19.434Z,3.88
2018-12-17T22:51:21.164Z,3.99
2018-12-17T22:54:22.875Z,4.07
2018-12-17T22:57:24.718Z,4.09
2018-12-17T23:00:27.020Z,4.09
2018-12-17T23:03:31.042Z,3.91
2018-12-17T23:06:32.900Z,3.71
2018-12-17T23:09:46.920Z,3.49
2018-12-17T23:13:00.899Z,3.40
2018-12-17T23:16:14.641Z,3.39
2018-12-17T23:19:16.103Z,3.41
2018-12-17T23:22:20.120Z,3.59
2018-12-17T23:25:23.904Z,3.63
2018-12-17T23:28:25.678Z,3.65
2018-12-17T23:31:27.399Z,3.60
2018-12-17T23:34:29.286Z,3.57
2018-12-17T23:37:31.157Z,3.62
2018-12-17T23:40:33.022Z,3.61
2018-12-17T23:43:34.761Z,3.59
2018-12-17T23:46:36.510Z,3.60
2018-12-17T23:49:38.209Z,3.63
2018-12-17T23:52:39.996Z,3.68
2018-12-17T23:55:41.708Z,3.77
2018-12-17T23:58:43.501Z,3.81
